createdAt,value
2022-07-31T00:00:45.985Z,49.52
2022-07-31T00:03:15.348Z,50.02
2022-07-31T00:05:43.335Z,49.80
2022-07-31T00:08:11.659Z,49.77
2022-07-31T00:10:39.725Z,50.31
2022-07-31T00:13:07.991Z,50.40
2022-07-31T00:15:39.790Z,50.10
2022-07-31T00:18:08.729Z,49.77
2022-07-31T00:20:36.845Z,49.84
2022-07-31T00:23:05.151Z,49.61
2022-07-31T00:25:34.273Z,49.92
2022-07-31T00:28:02.439Z,50.67
2022-07-31T00:30:30.943Z,50.50
2022-07-31T00:33:00.213Z,50.22
2022-07-31T00:35:28.315Z,50.80
2022-07-31T00:38:18.239Z,51.19
2022-07-31T00:40:48.826Z,51.92
2022-07-31T00:43:18.363Z,52.19
2022-07-31T00:45:47.303Z,52.09
2022-07-31T00:48:22.567Z,52.77
2022-07-31T00:50:51.361Z,53.04
2022-07-31T00:53:19.263Z,53.58
2022-07-31T00:55:51.396Z,54.14
2022-07-31T00:58:20.391Z,54.23
2022-07-31T01:00:48.567Z,54.19
2022-07-31T01:03:16.566Z,54.79
2022-07-31T01:05:45.989Z,54.67
2022-07-31T01:08:14.002Z,55.16
2022-07-31T01:10:53.209Z,55.32
2022-07-31T01:13:28.156Z,56.30
2022-07-31T01:15:59.194Z,56.24
2022-07-31T01:18:31.207Z,56.26
2022-07-31T01:21:04.747Z,56.40
2022-07-31T01:23:51.043Z,56.51
2022-07-31T01:26:43.135Z,57.02
2022-07-31T01:29:25.880Z,56.57
2022-07-31T01:32:02.083Z,56.64
2022-07-31T01:34:37.916Z,56.59
2022-07-31T01:37:15.002Z,56.49
2022-07-31T01:39:47.940Z,55.95
2022-07-31T01:42:19.490Z,55.72
2022-07-31T01:44:54.242Z,56.20
2022-07-31T01:47:26.262Z,56.14
2022-07-31T01:49:56.972Z,56.55
2022-07-31T01:52:29.228Z,57.04
2022-07-31T01:54:59.827Z,56.92
2022-07-31T01:57:32.592Z,57.21
2022-07-31T02:00:33.272Z,57.33
2022-07-31T02:02:58.729Z,57.16
2022-07-31T02:05:39.930Z,57.46
2022-07-31T02:08:10.484Z,57.82
2022-07-31T02:10:41.711Z,57.71
2022-07-31T02:13:12.527Z,57.52
2022-07-31T02:15:43.571Z,57.45
2022-07-31T02:18:13.329Z,57.95
2022-07-31T02:20:51.992Z,57.97
2022-07-31T02:23:19.925Z,57.88
2022-07-31T02:25:49.217Z,58.64
2022-07-31T02:28:20.412Z,59.51
2022-07-31T02:30:52.907Z,60.21
2022-07-31T02:33:23.805Z,60.76
2022-07-31T02:35:56.433Z,60.39
2022-07-31T02:38:27.513Z,59.73
2022-07-31T02:40:59.845Z,59.61
2022-07-31T02:43:32.028Z,60.00
2022-07-31T02:46:07.225Z,60.37
2022-07-31T02:48:37.183Z,60.51
2022-07-31T02:51:09.647Z,60.50
2022-07-31T02:53:38.850Z,60.83
2022-07-31T02:56:10.978Z,60.96
2022-07-31T02:58:42.239Z,62.33
2022-07-31T03:01:18.713Z,62.27
2022-07-31T03:03:47.525Z,62.87
2022-07-31T03:06:16.348Z,63.17
2022-07-31T03:08:44.579Z,62.77
2022-07-31T03:11:15.407Z,62.71
2022-07-31T03:13:44.677Z,61.95
2022-07-31T03:16:14.202Z,61.52
2022-07-31T03:18:44.703Z,61.84
2022-07-31T03:21:14.487Z,61.34
2022-07-31T03:23:43.498Z,62.77
2022-07-31T03:26:18.942Z,63.15
2022-07-31T03:28:47.061Z,62.37
2022-07-31T03:31:15.069Z,61.68
2022-07-31T03:33:44.681Z,61.03
2022-07-31T03:36:15.046Z,60.94
2022-07-31T03:38:46.471Z,62.31
2022-07-31T03:41:26.012Z,63.32
2022-07-31T03:43:54.932Z,62.28
2022-07-31T03:46:25.086Z,61.77
2022-07-31T03:48:56.120Z,61.87
2022-07-31T03:51:27.952Z,63.16
2022-07-31T03:53:56.205Z,63.40
2022-07-31T03:56:54.610Z,63.93
2022-07-31T03:59:24.384Z,63.07
2022-07-31T04:01:57.641Z,63.09
2022-07-31T04:04:46.904Z,62.96
2022-07-31T04:07:15.380Z,62.34
2022-07-31T04:09:43.306Z,62.04
2022-07-31T04:12:12.934Z,62.81
2022-07-31T04:14:41.649Z,61.87
2022-07-31T04:17:10.384Z,61.96
2022-07-31T04:19:39.392Z,61.94
2022-07-31T04:22:09.642Z,61.26
2022-07-31T04:24:39.467Z,61.80
2022-07-31T04:27:27.727Z,62.07
2022-07-31T04:29:57.227Z,61.51
2022-07-31T04:32:25.883Z,61.74
2022-07-31T04:34:59.056Z,61.60
2022-07-31T04:37:28.458Z,61.22
2022-07-31T04:39:57.376Z,61.19
2022-07-31T04:42:26.241Z,61.34
2022-07-31T04:44:54.514Z,61.85
2022-07-31T04:47:22.762Z,61.92
2022-07-31T04:49:52.479Z,61.97
2022-07-31T04:52:20.511Z,62.38
2022-07-31T04:54:52.234Z,63.27
2022-07-31T04:57:22.146Z,62.57
2022-07-31T04:59:59.933Z,62.61
2022-07-31T05:02:29.719Z,62.05
2022-07-31T05:04:58.404Z,61.80
2022-07-31T05:07:32.778Z,62.47
2022-07-31T05:10:07.169Z,61.36
2022-07-31T05:12:36.739Z,62.01
2022-07-31T05:15:05.168Z,61.46
2022-07-31T05:17:33.448Z,61.60
2022-07-31T05:20:20.833Z,61.18
2022-07-31T05:23:12.162Z,61.51
2022-07-31T05:25:53.159Z,61.17
2022-07-31T05:28:27.151Z,60.55
2022-07-31T05:30:59.284Z,60.46
2022-07-31T05:33:29.421Z,59.21
2022-07-31T05:35:58.804Z,59.23
2022-07-31T05:38:26.733Z,58.94
2022-07-31T05:41:15.141Z,58.27
2022-07-31T05:44:18.478Z,58.85
2022-07-31T05:46:48.017Z,58.34
2022-07-31T05:49:16.429Z,58.24
2022-07-31T05:51:47.198Z,58.05
2022-07-31T05:54:15.416Z,58.33
2022-07-31T05:57:03.431Z,58.81
2022-07-31T05:59:40.234Z,58.92
2022-07-31T06:02:08.784Z,58.02
2022-07-31T06:04:58.510Z,57.73
2022-07-31T06:07:28.943Z,57.66
2022-07-31T06:09:57.947Z,57.37
2022-07-31T06:12:27.455Z,56.89
2022-07-31T06:14:55.444Z,56.73
2022-07-31T06:17:49.468Z,55.91
2022-07-31T06:20:26.408Z,55.83
2022-07-31T06:22:54.869Z,55.41
2022-07-31T06:25:31.793Z,55.57
2022-07-31T06:28:04.188Z,55.37
2022-07-31T06:30:38.374Z,55.30
2022-07-31T06:33:08.341Z,55.14
2022-07-31T06:35:37.298Z,55.23
2022-07-31T06:38:37.409Z,54.02
2022-07-31T06:41:43.045Z,54.43
2022-07-31T06:44:31.819Z,53.95
2022-07-31T06:47:22.029Z,52.82
2022-07-31T06:50:09.753Z,51.99
2022-07-31T06:52:47.097Z,51.94
2022-07-31T06:55:15.372Z,52.28
2022-07-31T06:57:43.617Z,52.81
2022-07-31T07:00:20.307Z,52.78
2022-07-31T07:02:50.075Z,53.29
2022-07-31T07:05:18.756Z,52.85
2022-07-31T07:07:51.387Z,52.15
2022-07-31T07:10:19.620Z,52.14
2022-07-31T07:13:00.782Z,51.35
2022-07-31T07:15:35.363Z,51.46
2022-07-31T07:18:03.617Z,51.39
2022-07-31T07:20:45.686Z,50.99
2022-07-31T07:23:14.376Z,51.65
2022-07-31T07:26:03.138Z,52.85
2022-07-31T07:28:33.409Z,52.55
2022-07-31T07:31:05.717Z,52.01
2022-07-31T07:33:41.335Z,50.91
2022-07-31T07:36:23.410Z,50.66
2022-07-31T07:39:19.047Z,51.38
2022-07-31T07:41:48.207Z,51.43
2022-07-31T07:44:16.337Z,52.06
2022-07-31T07:46:46.455Z,51.81
2022-07-31T07:49:18.608Z,52.30
2022-07-31T07:52:08.909Z,51.26
2022-07-31T07:54:40.490Z,51.53
2022-07-31T07:57:37.988Z,49.37
2022-07-31T08:00:25.929Z,48.70
2022-07-31T08:03:49.496Z,48.51
2022-07-31T08:05:52.712Z,48.55
2022-07-31T08:08:22.666Z,47.95
2022-07-31T08:10:51.422Z,47.32
2022-07-31T08:13:41.014Z,46.98
2022-07-31T08:16:21.857Z,45.65
2022-07-31T08:18:55.509Z,44.33
2022-07-31T08:21:23.790Z,43.23
2022-07-31T08:23:52.755Z,42.06
2022-07-31T08:26:21.561Z,42.39
2022-07-31T08:28:51.267Z,42.66
2022-07-31T08:31:23.618Z,43.57
2022-07-31T08:34:11.564Z,43.02
2022-07-31T08:37:00.016Z,43.63
2022-07-31T08:39:49.478Z,42.83
2022-07-31T08:42:18.451Z,42.69
2022-07-31T08:44:47.118Z,42.45
2022-07-31T08:47:19.775Z,41.80
2022-07-31T08:49:51.643Z,40.50
2022-07-31T08:52:21.623Z,40.56
2022-07-31T08:55:08.785Z,41.10
2022-07-31T08:57:37.472Z,40.98
2022-07-31T09:00:07.281Z,40.09
2022-07-31T09:02:35.465Z,38.91
2022-07-31T09:05:43.456Z,38.81
2022-07-31T09:08:14.703Z,39.00
2022-07-31T09:10:49.912Z,39.04
2022-07-31T09:13:19.907Z,38.62
2022-07-31T09:15:52.604Z,39.06
2022-07-31T09:18:24.846Z,39.57
2022-07-31T09:21:15.458Z,38.67
2022-07-31T09:23:47.688Z,38.90
2022-07-31T09:26:16.624Z,39.56
2022-07-31T09:28:46.598Z,40.04
2022-07-31T09:31:14.959Z,39.79
2022-07-31T09:34:06.853Z,40.14
2022-07-31T09:36:36.485Z,40.62
2022-07-31T09:39:27.009Z,40.40
2022-07-31T09:42:16.587Z,40.88
2022-07-31T09:44:53.761Z,40.94
2022-07-31T09:47:23.259Z,40.96
2022-07-31T09:49:56.654Z,40.42
2022-07-31T09:52:29.067Z,40.49
2022-07-31T09:55:14.259Z,40.92
2022-07-31T09:57:54.468Z,41.73
2022-07-31T10:00:24.701Z,41.08
2022-07-31T10:02:57.906Z,40.67
2022-07-31T10:05:28.862Z,40.69
2022-07-31T10:08:02.643Z,40.16
2022-07-31T10:10:55.690Z,40.68
2022-07-31T10:13:55.795Z,40.69
2022-07-31T10:16:27.358Z,40.30
2022-07-31T10:19:01.105Z,39.47
2022-07-31T10:21:42.159Z,36.74
2022-07-31T10:24:28.315Z,32.00
2022-07-31T10:27:01.551Z,29.41
2022-07-31T10:29:41.046Z,29.11
2022-07-31T10:32:10.794Z,30.04
2022-07-31T10:35:01.990Z,30.05
2022-07-31T10:37:58.997Z,32.46
2022-07-31T10:41:22.256Z,29.52
2022-07-31T10:43:56.948Z,29.07
2022-07-31T10:46:41.290Z,31.39
2022-07-31T10:49:48.899Z,30.82
2022-07-31T10:52:43.088Z,29.58
2022-07-31T10:55:19.366Z,30.13
2022-07-31T10:58:11.682Z,29.84
2022-07-31T11:01:06.677Z,28.82
2022-07-31T11:03:46.698Z,29.48
2022-07-31T11:06:41.613Z,33.91
2022-07-31T11:09:30.836Z,31.34
2022-07-31T11:12:18.587Z,29.14
2022-07-31T11:15:23.005Z,28.22
2022-07-31T11:18:33.943Z,28.28
2022-07-31T11:21:28.837Z,29.12
2022-07-31T11:24:02.292Z,28.81
2022-07-31T11:26:41.997Z,28.87
2022-07-31T11:30:00.870Z,30.90
2022-07-31T11:32:15.490Z,27.80
2022-07-31T11:34:48.691Z,29.73
2022-07-31T11:37:22.829Z,32.27
2022-07-31T11:39:52.765Z,32.26
2022-07-31T11:42:26.573Z,33.80
2022-07-31T11:45:08.353Z,34.97
2022-07-31T11:48:12.522Z,32.98
2022-07-31T11:50:32.397Z,28.90
2022-07-31T11:53:04.461Z,25.91
2022-07-31T11:55:33.017Z,25.46
2022-07-31T11:58:01.078Z,25.10
2022-07-31T12:00:32.798Z,26.00
2022-07-31T12:03:02.953Z,26.03
2022-07-31T12:05:37.624Z,26.26
2022-07-31T12:08:12.799Z,25.15
2022-07-31T12:10:41.694Z,24.63
2022-07-31T12:13:16.154Z,24.39
2022-07-31T12:15:58.276Z,26.72
2022-07-31T12:18:30.217Z,25.86
2022-07-31T12:21:00.238Z,26.93
2022-07-31T12:23:40.834Z,26.25
2022-07-31T12:26:11.718Z,25.64
2022-07-31T12:28:39.761Z,25.80
2022-07-31T12:31:07.780Z,25.43
2022-07-31T12:33:44.328Z,25.17
2022-07-31T12:36:17.261Z,26.03
2022-07-31T12:38:48.273Z,25.35
2022-07-31T12:41:18.394Z,24.19
2022-07-31T12:43:51.466Z,24.57
2022-07-31T12:46:22.134Z,24.73
2022-07-31T12:48:51.887Z,24.65
2022-07-31T12:51:44.129Z,26.94
2022-07-31T12:54:10.920Z,28.22
2022-07-31T12:56:40.575Z,28.67
2022-07-31T12:59:09.549Z,28.52
2022-07-31T13:01:38.455Z,27.23
2022-07-31T13:04:19.128Z,26.15
2022-07-31T13:06:51.379Z,27.49
2022-07-31T13:09:20.258Z,28.98
2022-07-31T13:11:49.912Z,25.98
2022-07-31T13:14:21.800Z,26.80
2022-07-31T13:16:53.404Z,26.38
2022-07-31T13:19:23.804Z,25.25
2022-07-31T13:21:51.956Z,25.08
2022-07-31T13:24:24.771Z,25.73
2022-07-31T13:26:53.722Z,26.46
2022-07-31T13:29:21.697Z,25.60
2022-07-31T13:31:50.126Z,25.52
2022-07-31T13:34:18.233Z,25.31
2022-07-31T13:36:47.960Z,27.34
2022-07-31T13:39:16.380Z,26.12
2022-07-31T13:41:44.459Z,25.68
2022-07-31T13:44:13.321Z,24.91
2022-07-31T13:46:41.676Z,24.71
2022-07-31T13:49:10.509Z,24.32
2022-07-31T13:51:39.629Z,26.63
2022-07-31T13:54:09.426Z,28.32
2022-07-31T13:56:42.969Z,28.18
2022-07-31T13:59:13.591Z,26.43
2022-07-31T14:02:03.062Z,25.64
2022-07-31T14:04:32.900Z,25.03
2022-07-31T14:07:07.641Z,24.62
2022-07-31T14:09:37.984Z,25.48
2022-07-31T14:12:06.703Z,25.92
2022-07-31T14:14:35.352Z,25.53
2022-07-31T14:17:05.072Z,25.08
2022-07-31T14:19:44.096Z,24.34
2022-07-31T14:22:14.161Z,24.69
2022-07-31T14:24:50.703Z,25.41
2022-07-31T14:27:20.961Z,25.64
2022-07-31T14:29:49.652Z,26.38
2022-07-31T14:32:19.619Z,27.76
2022-07-31T14:34:47.968Z,28.84
2022-07-31T14:37:16.065Z,27.98
2022-07-31T14:39:45.486Z,28.11
2022-07-31T14:42:13.770Z,28.07
2022-07-31T14:44:42.806Z,28.13
2022-07-31T14:47:11.324Z,27.83
2022-07-31T14:50:07.860Z,28.41
2022-07-31T14:52:28.510Z,28.52
2022-07-31T14:54:58.642Z,27.12
2022-07-31T14:57:31.404Z,28.01
2022-07-31T14:59:59.717Z,27.81
2022-07-31T15:02:27.860Z,28.97
2022-07-31T15:04:56.697Z,28.44
2022-07-31T15:07:46.256Z,28.37
2022-07-31T15:10:14.978Z,28.31
2022-07-31T15:12:45.867Z,27.96
2022-07-31T15:15:13.963Z,28.52
2022-07-31T15:17:41.857Z,28.27
2022-07-31T15:20:11.564Z,27.82
2022-07-31T15:22:39.915Z,28.29
2022-07-31T15:25:10.185Z,27.45
2022-07-31T15:27:39.956Z,28.33
2022-07-31T15:30:09.122Z,27.79
2022-07-31T15:32:38.738Z,28.15
2022-07-31T15:35:09.051Z,28.27
2022-07-31T15:37:39.833Z,28.30
2022-07-31T15:40:10.874Z,28.18
2022-07-31T15:42:42.841Z,28.17
2022-07-31T15:45:14.690Z,28.23
2022-07-31T15:47:43.496Z,28.09
2022-07-31T15:50:14.248Z,28.62
2022-07-31T15:52:42.683Z,28.77
2022-07-31T15:55:11.647Z,28.40
2022-07-31T15:57:41.168Z,28.60
2022-07-31T16:00:12.046Z,28.44
2022-07-31T16:02:41.600Z,29.04
2022-07-31T16:05:21.939Z,29.04
2022-07-31T16:08:32.746Z,29.61
2022-07-31T16:10:52.499Z,29.87
2022-07-31T16:13:24.234Z,29.10
2022-07-31T16:15:54.834Z,29.03
2022-07-31T16:18:22.721Z,28.44
2022-07-31T16:20:50.793Z,29.00
2022-07-31T16:23:18.965Z,29.18
2022-07-31T16:25:47.529Z,28.60
2022-07-31T16:28:15.484Z,29.60
2022-07-31T16:30:45.672Z,29.74
2022-07-31T16:33:14.020Z,29.37
2022-07-31T16:35:42.084Z,29.49
2022-07-31T16:38:10.441Z,30.54
2022-07-31T16:40:38.428Z,30.63
2022-07-31T16:43:51.029Z,30.08
2022-07-31T16:45:58.005Z,30.24
2022-07-31T16:48:26.723Z,30.28
2022-07-31T16:50:55.124Z,30.28
2022-07-31T16:54:13.550Z,30.55
2022-07-31T16:56:12.773Z,30.82
2022-07-31T16:58:41.310Z,30.58
2022-07-31T17:01:58.785Z,30.61
2022-07-31T17:04:03.127Z,30.73
2022-07-31T17:06:36.412Z,31.13
2022-07-31T17:09:15.302Z,31.54
2022-07-31T17:11:47.042Z,31.31
2022-07-31T17:14:15.517Z,31.34
2022-07-31T17:16:48.101Z,31.44
2022-07-31T17:19:16.868Z,31.31
2022-07-31T17:22:05.020Z,30.95
2022-07-31T17:24:33.131Z,31.44
2022-07-31T17:27:00.965Z,31.01
2022-07-31T17:29:28.845Z,31.05
2022-07-31T17:31:58.469Z,31.21
2022-07-31T17:34:26.689Z,31.35
2022-07-31T17:36:55.145Z,30.92
2022-07-31T17:39:30.199Z,31.54
2022-07-31T17:41:59.718Z,31.54
2022-07-31T17:44:28.252Z,32.64
2022-07-31T17:46:57.934Z,32.12
2022-07-31T17:49:28.794Z,32.45
2022-07-31T17:51:58.885Z,33.14
2022-07-31T17:54:30.365Z,33.11
2022-07-31T17:56:58.676Z,32.84
2022-07-31T17:59:27.304Z,33.12
2022-07-31T18:01:59.897Z,33.10
2022-07-31T18:04:30.125Z,33.31
2022-07-31T18:06:58.445Z,33.47
2022-07-31T18:09:27.320Z,33.95
2022-07-31T18:11:56.442Z,33.76
2022-07-31T18:14:25.100Z,33.93
2022-07-31T18:16:53.601Z,34.54
2022-07-31T18:19:22.636Z,34.41
2022-07-31T18:21:53.349Z,34.89
2022-07-31T18:24:22.668Z,34.43
2022-07-31T18:26:51.179Z,34.47
2022-07-31T18:29:23.175Z,34.68
2022-07-31T18:31:51.283Z,34.85
2022-07-31T18:34:19.442Z,35.15
2022-07-31T18:36:52.909Z,35.28
2022-07-31T18:39:24.800Z,35.65
2022-07-31T18:41:52.918Z,35.78
2022-07-31T18:44:22.024Z,36.03
2022-07-31T18:46:56.181Z,36.79
2022-07-31T18:51:03.014Z,37.03
2022-07-31T18:52:12.936Z,36.91
2022-07-31T18:54:45.692Z,37.60
2022-07-31T18:57:14.314Z,37.68
2022-07-31T18:59:43.136Z,37.55
2022-07-31T19:02:12.614Z,38.48
2022-07-31T19:04:41.058Z,38.52
2022-07-31T19:07:09.157Z,38.83
2022-07-31T19:09:37.362Z,38.94
2022-07-31T19:12:08.684Z,39.78
2022-07-31T19:14:37.451Z,39.72
2022-07-31T19:17:05.803Z,39.01
2022-07-31T19:19:54.396Z,39.56
2022-07-31T19:22:22.960Z,40.22
2022-07-31T19:24:52.661Z,40.61
2022-07-31T19:27:22.536Z,40.98
2022-07-31T19:30:13.666Z,41.54
2022-07-31T19:32:41.772Z,41.90
2022-07-31T19:35:10.375Z,42.42
2022-07-31T19:37:38.297Z,42.72
2022-07-31T19:40:08.666Z,43.23
2022-07-31T19:42:39.603Z,42.70
2022-07-31T19:45:09.221Z,43.45
2022-07-31T19:47:37.135Z,43.99
2022-07-31T19:50:07.494Z,44.28
2022-07-31T19:52:36.404Z,45.04
2022-07-31T19:55:05.391Z,45.24
2022-07-31T19:57:33.398Z,45.06
2022-07-31T20:00:02.763Z,46.09
2022-07-31T20:02:32.373Z,46.47
2022-07-31T20:05:00.537Z,46.12
2022-07-31T20:07:32.707Z,46.73
2022-07-31T20:10:01.819Z,47.38
2022-07-31T20:12:29.693Z,47.39
2022-07-31T20:14:57.873Z,47.62
2022-07-31T20:17:27.203Z,47.68
2022-07-31T20:20:15.129Z,47.52
2022-07-31T20:22:43.704Z,47.99
2022-07-31T20:25:20.512Z,48.12
2022-07-31T20:27:49.421Z,47.91
2022-07-31T20:30:21.901Z,48.68
2022-07-31T20:32:52.844Z,48.68
2022-07-31T20:35:47.149Z,48.74
2022-07-31T20:38:15.533Z,48.80
2022-07-31T20:40:51.151Z,49.37
2022-07-31T20:43:23.037Z,49.07
2022-07-31T20:45:51.852Z,49.26
2022-07-31T20:48:24.186Z,49.40
2022-07-31T20:50:52.831Z,50.00
2022-07-31T20:53:22.033Z,49.78
2022-07-31T20:55:51.415Z,50.68
2022-07-31T20:58:19.902Z,50.07
2022-07-31T21:00:48.932Z,50.36
2022-07-31T21:03:17.917Z,51.06
2022-07-31T21:05:47.982Z,51.17
2022-07-31T21:08:16.807Z,50.88
2022-07-31T21:10:44.968Z,51.19
2022-07-31T21:13:13.630Z,50.95
2022-07-31T21:15:45.054Z,51.13
2022-07-31T21:18:15.823Z,50.24
2022-07-31T21:20:49.806Z,49.78
2022-07-31T21:23:23.483Z,49.84
2022-07-31T21:25:52.185Z,49.89
2022-07-31T21:28:20.469Z,51.21
2022-07-31T21:30:49.083Z,50.53
2022-07-31T21:33:18.537Z,49.85
2022-07-31T21:35:47.312Z,49.01
2022-07-31T21:38:16.229Z,48.96
2022-07-31T21:40:46.734Z,48.96
2022-07-31T21:43:16.640Z,48.78
2022-07-31T21:45:55.396Z,48.75
2022-07-31T21:48:25.771Z,48.61
2022-07-31T21:50:54.848Z,48.47
2022-07-31T21:53:23.784Z,48.69
2022-07-31T21:55:53.069Z,48.40
2022-07-31T21:58:22.977Z,48.73
2022-07-31T22:00:51.972Z,49.31
2022-07-31T22:03:20.181Z,49.36
2022-07-31T22:06:08.090Z,49.51
2022-07-31T22:08:36.225Z,49.56
2022-07-31T22:11:06.864Z,49.75
2022-07-31T22:13:36.773Z,49.72
2022-07-31T22:16:08.859Z,49.58
2022-07-31T22:18:37.944Z,49.53
2022-07-31T22:21:09.191Z,49.85
2022-07-31T22:23:37.686Z,49.95
2022-07-31T22:26:08.113Z,50.50
2022-07-31T22:28:36.617Z,51.15
2022-07-31T22:31:04.663Z,51.26
2022-07-31T22:33:32.799Z,51.53
2022-07-31T22:36:02.624Z,51.40
2022-07-31T22:38:31.765Z,51.21
2022-07-31T22:41:00.103Z,51.64
2022-07-31T22:44:10.795Z,51.67
2022-07-31T22:46:20.311Z,51.95
2022-07-31T22:48:49.151Z,52.31
2022-07-31T22:51:18.700Z,52.78
2022-07-31T22:53:50.336Z,52.65
2022-07-31T22:56:19.355Z,53.27
2022-07-31T22:58:52.664Z,53.34
2022-07-31T23:01:21.444Z,53.86
2022-07-31T23:03:49.398Z,53.78
2022-07-31T23:06:31.688Z,54.38
2022-07-31T23:09:01.355Z,54.47
2022-07-31T23:11:29.673Z,54.38
2022-07-31T23:13:59.780Z,54.80
2022-07-31T23:16:28.050Z,55.18
2022-07-31T23:18:56.105Z,55.45
2022-07-31T23:21:24.110Z,55.19
2022-07-31T23:23:52.914Z,55.11
2022-07-31T23:26:23.874Z,55.14
2022-07-31T23:28:53.212Z,55.31
2022-07-31T23:31:23.569Z,55.58
2022-07-31T23:33:52.007Z,55.60
2022-07-31T23:36:20.488Z,55.88
2022-07-31T23:38:48.542Z,56.39
2022-07-31T23:41:36.487Z,56.50
2022-07-31T23:44:03.889Z,57.14
2022-07-31T23:46:34.226Z,57.18
2022-07-31T23:49:02.543Z,57.56
2022-07-31T23:51:30.876Z,57.79
2022-07-31T23:53:58.710Z,57.85
2022-07-31T23:56:26.680Z,58.11
2022-07-31T23:58:54.601Z,58.77
